createdAt,value
2018-08-14T00:00:53.454Z,1.27
2018-08-14T00:03:24.109Z,1.20
2018-08-14T00:05:54.784Z,1.30
2018-08-14T00:08:25.465Z,1.40
2018-08-14T00:10:56.122Z,1.55
2018-08-14T00:13:26.849Z,1.65
2018-08-14T00:15:57.993Z,1.52
2018-08-14T00:18:28.618Z,1.40
2018-08-14T00:20:59.274Z,1.60
2018-08-14T00:23:30.027Z,1.50
2018-08-14T00:26:00.690Z,1.47
2018-08-14T00:28:31.350Z,1.45
2018-08-14T00:31:02.349Z,1.50
2018-08-14T00:33:34.618Z,1.40
2018-08-14T00:36:06.953Z,1.60
2018-08-14T00:38:38.607Z,1.55
2018-08-14T00:41:09.602Z,1.52
2018-08-14T00:43:40.301Z,1.40
2018-08-14T00:46:10.977Z,1.37
2018-08-14T00:48:41.601Z,1.50
2018-08-14T00:51:12.376Z,1.70
2018-08-14T00:53:43.029Z,1.30
2018-08-14T00:56:14.226Z,1.37
2018-08-14T00:58:44.938Z,1.50
2018-08-14T01:01:15.683Z,1.50
2018-08-14T01:03:46.435Z,1.47
2018-08-14T01:06:17.140Z,1.55
2018-08-14T01:08:48.179Z,1.55
2018-08-14T01:11:19.247Z,1.45
2018-08-14T01:13:49.956Z,1.60
2018-08-14T01:16:20.631Z,1.60
2018-08-14T01:18:51.351Z,1.60
2018-08-14T01:21:22.060Z,1.82
2018-08-14T01:23:52.783Z,1.50
2018-08-14T01:26:23.516Z,1.42
2018-08-14T01:28:54.175Z,1.47
2018-08-14T01:31:24.936Z,1.82
2018-08-14T01:33:56.015Z,1.70
2018-08-14T01:36:26.692Z,1.90
2018-08-14T01:38:57.764Z,1.62
2018-08-14T01:41:28.450Z,2.10
2018-08-14T01:43:59.147Z,2.08
2018-08-14T01:46:29.891Z,1.80
2018-08-14T01:49:00.567Z,1.75
2018-08-14T01:51:31.411Z,1.85
2018-08-14T01:54:02.151Z,2.10
2018-08-14T01:56:32.895Z,2.67
2018-08-14T01:59:03.655Z,2.77
2018-08-14T02:01:34.363Z,3.05
2018-08-14T02:04:05.124Z,3.33
2018-08-14T02:06:36.232Z,3.85
2018-08-14T02:09:08.983Z,3.50
2018-08-14T02:11:40.044Z,3.60
2018-08-14T02:14:10.792Z,3.20
2018-08-14T02:16:41.499Z,3.65
2018-08-14T02:19:12.198Z,4.17
2018-08-14T02:21:42.935Z,3.70
2018-08-14T02:24:13.607Z,3.67
2018-08-14T02:26:44.343Z,4.60
2018-08-14T02:29:15.346Z,3.83
2018-08-14T02:31:46.390Z,3.37
2018-08-14T02:34:17.399Z,3.70
2018-08-14T02:36:48.129Z,3.08
2018-08-14T02:39:18.992Z,3.02
2018-08-14T02:41:50.088Z,2.83
2018-08-14T02:44:20.746Z,3.17
2018-08-14T02:46:52.197Z,3.27
2018-08-14T02:49:22.884Z,3.58
2018-08-14T02:51:53.595Z,3.47
2018-08-14T02:54:24.408Z,3.37
2018-08-14T02:56:55.710Z,2.60
2018-08-14T02:59:26.447Z,3.20
2018-08-14T03:01:57.131Z,3.33
2018-08-14T03:04:27.843Z,3.47
2018-08-14T03:06:58.514Z,3.37
2018-08-14T03:09:29.198Z,3.67
2018-08-14T03:11:59.887Z,2.98
2018-08-14T03:14:30.610Z,3.20
2018-08-14T03:17:01.338Z,3.50
2018-08-14T03:19:32.010Z,3.40
2018-08-14T03:22:02.887Z,3.08
2018-08-14T03:24:33.939Z,3.52
2018-08-14T03:27:05.028Z,3.37
2018-08-14T03:29:35.711Z,4.10
2018-08-14T03:32:06.919Z,4.60
2018-08-14T03:34:37.782Z,4.50
2018-08-14T03:37:08.582Z,4.03
2018-08-14T03:39:39.268Z,4.40
2018-08-14T03:42:09.955Z,4.60
2018-08-14T03:44:40.599Z,4.72
2018-08-14T03:47:11.717Z,4.28
2018-08-14T03:49:42.857Z,4.55
2018-08-14T03:52:13.543Z,4.80
2018-08-14T03:54:44.222Z,4.92
2018-08-14T03:57:14.910Z,4.60
2018-08-14T03:59:45.938Z,4.47
2018-08-14T04:02:16.622Z,4.90
2018-08-14T04:04:47.658Z,4.65
2018-08-14T04:07:18.355Z,4.50
2018-08-14T04:09:49.038Z,4.55
2018-08-14T04:12:19.799Z,4.75
2018-08-14T04:14:50.454Z,4.75
2018-08-14T04:17:21.119Z,4.12
2018-08-14T04:19:51.807Z,4.80
2018-08-14T04:22:22.502Z,4.72
2018-08-14T04:24:53.169Z,4.10
2018-08-14T04:27:23.867Z,4.53
2018-08-14T04:29:54.578Z,4.30
2018-08-14T04:32:25.234Z,4.15
2018-08-14T04:34:56.233Z,4.25
2018-08-14T04:37:26.919Z,4.05
2018-08-14T04:39:57.621Z,3.67
2018-08-14T04:42:28.299Z,3.87
2018-08-14T04:44:58.956Z,4.45
2018-08-14T04:47:29.602Z,3.87
2018-08-14T04:50:00.319Z,3.98
2018-08-14T04:52:31.011Z,4.08
2018-08-14T04:55:01.695Z,4.03
2018-08-14T04:57:32.695Z,3.80
2018-08-14T05:00:03.667Z,4.10
2018-08-14T05:02:34.697Z,4.25
2018-08-14T05:05:07.283Z,4.12
2018-08-14T05:07:38.374Z,3.83
2018-08-14T05:10:10.580Z,4.28
2018-08-14T05:12:41.254Z,3.80
2018-08-14T05:15:12.308Z,3.98
2018-08-14T05:17:43.007Z,4.25
2018-08-14T05:20:14.283Z,3.77
2018-08-14T05:22:45.303Z,4.42
2018-08-14T05:25:16.302Z,4.15
2018-08-14T05:27:46.957Z,3.60
2018-08-14T05:30:18.365Z,4.25
2018-08-14T05:32:49.443Z,3.80
2018-08-14T05:35:20.462Z,4.10
2018-08-14T05:37:51.491Z,3.50
2018-08-14T05:40:22.526Z,3.75
2018-08-14T05:42:53.561Z,4.20
2018-08-14T05:45:24.571Z,3.75
2018-08-14T05:47:55.222Z,3.92
2018-08-14T05:50:25.926Z,3.72
2018-08-14T05:52:56.584Z,3.58
2018-08-14T05:55:27.818Z,4.00
2018-08-14T05:57:58.502Z,3.62
2018-08-14T06:00:29.185Z,4.10
2018-08-14T06:03:00.154Z,3.60
2018-08-14T06:05:30.826Z,4.00
2018-08-14T06:08:01.520Z,3.70
2018-08-14T06:10:32.517Z,3.60
2018-08-14T06:13:03.201Z,4.20
2018-08-14T06:15:34.543Z,4.37
2018-08-14T06:18:05.804Z,3.87
2018-08-14T06:20:36.453Z,4.05
2018-08-14T06:23:08.033Z,3.80
2018-08-14T06:25:38.737Z,3.70
2018-08-14T06:28:09.426Z,3.55
2018-08-14T06:30:40.421Z,3.47
2018-08-14T06:33:11.105Z,4.30
2018-08-14T06:35:41.770Z,5.97
2018-08-14T06:38:12.989Z,4.47
2018-08-14T06:40:43.699Z,3.90
2018-08-14T06:43:14.390Z,4.95
2018-08-14T06:45:45.375Z,4.47
2018-08-14T06:48:16.048Z,4.62
2018-08-14T06:50:46.747Z,4.97
2018-08-14T06:53:17.474Z,4.97
2018-08-14T06:55:48.171Z,4.70
2018-08-14T06:58:18.870Z,5.00
2018-08-14T07:00:49.885Z,4.58
2018-08-14T07:03:20.521Z,4.70
2018-08-14T07:05:51.187Z,4.72
2018-08-14T07:08:22.190Z,5.00
2018-08-14T07:10:52.873Z,5.53
2018-08-14T07:13:23.600Z,5.75
2018-08-14T07:15:54.450Z,5.00
2018-08-14T07:18:25.119Z,6.33
2018-08-14T07:20:55.798Z,5.87
2018-08-14T07:23:26.494Z,5.92
2018-08-14T07:25:57.195Z,6.25
2018-08-14T07:28:28.059Z,5.78
2018-08-14T07:30:58.769Z,5.97
2018-08-14T07:33:29.761Z,5.70
2018-08-14T07:36:00.767Z,5.53
2018-08-14T07:38:31.613Z,5.80
2018-08-14T07:41:02.907Z,5.67
2018-08-14T07:43:33.587Z,5.37
2018-08-14T07:46:04.370Z,6.03
2018-08-14T07:48:35.533Z,5.83
2018-08-14T07:51:06.435Z,6.22
2018-08-14T07:53:37.098Z,5.28
2018-08-14T07:56:07.817Z,6.03
2018-08-14T07:58:38.818Z,5.95
2018-08-14T08:01:09.482Z,6.67
2018-08-14T08:03:40.538Z,6.42
2018-08-14T08:06:11.838Z,6.05
2018-08-14T08:08:42.678Z,5.92
2018-08-14T08:11:13.327Z,6.55
2018-08-14T08:13:43.971Z,6.75
2018-08-14T08:16:14.629Z,6.75
2018-08-14T08:18:45.254Z,5.72
2018-08-14T08:21:15.924Z,7.00
2018-08-14T08:23:46.921Z,7.12
2018-08-14T08:26:24.323Z,5.80
2018-08-14T08:28:55.037Z,6.58
2018-08-14T08:31:25.693Z,6.45
2018-08-14T08:33:56.534Z,6.90
2018-08-14T08:36:27.150Z,6.33
2018-08-14T08:38:57.848Z,6.62
2018-08-14T08:41:28.477Z,6.22
2018-08-14T08:43:59.158Z,5.92
2018-08-14T08:46:30.137Z,6.62
2018-08-14T08:49:00.914Z,5.95
2018-08-14T08:51:31.717Z,5.37
2018-08-14T08:54:03.433Z,6.45
2018-08-14T08:56:34.118Z,6.15
2018-08-14T08:59:05.126Z,6.30
2018-08-14T09:01:35.838Z,5.83
2018-08-14T09:04:06.842Z,5.05
2018-08-14T09:06:37.520Z,6.55
2018-08-14T09:09:10.448Z,6.28
2018-08-14T09:11:41.520Z,5.25
2018-08-14T09:14:12.178Z,5.40
2018-08-14T09:16:42.894Z,5.95
2018-08-14T09:19:13.595Z,7.12
2018-08-14T09:21:44.301Z,8.33
2018-08-14T09:24:15.317Z,8.78
2018-08-14T09:26:46.398Z,8.65
2018-08-14T09:29:17.064Z,8.63
2018-08-14T09:31:48.093Z,8.85
2018-08-14T09:34:18.753Z,9.18
2018-08-14T09:36:49.467Z,9.10
2018-08-14T09:39:20.323Z,9.35
2018-08-14T09:41:51.045Z,8.85
2018-08-14T09:44:21.673Z,9.83
2018-08-14T09:46:52.430Z,9.43
2018-08-14T09:49:23.565Z,10.13
2018-08-14T09:51:54.258Z,10.13
2018-08-14T09:54:24.995Z,9.70
2018-08-14T09:56:56.177Z,8.88
2018-08-14T09:59:26.870Z,9.55
2018-08-14T10:02:02.912Z,9.35
2018-08-14T10:04:39.064Z,10.00
2018-08-14T10:07:15.208Z,9.38
2018-08-14T10:09:45.910Z,9.98
2018-08-14T10:12:16.561Z,8.75
2018-08-14T10:14:51.591Z,9.75
2018-08-14T10:17:22.826Z,8.98
2018-08-14T10:19:54.195Z,8.75
2018-08-14T10:22:25.117Z,8.33
2018-08-14T10:24:55.839Z,8.23
2018-08-14T10:27:26.293Z,8.93
2018-08-14T10:29:56.950Z,8.60
2018-08-14T10:32:28.113Z,11.15
2018-08-14T10:34:58.802Z,10.53
2018-08-14T10:37:29.501Z,10.23
2018-08-14T10:39:59.928Z,10.60
2018-08-14T10:42:30.782Z,10.18
2018-08-14T10:45:01.463Z,9.45
2018-08-14T10:47:32.254Z,9.68
2018-08-14T10:50:02.928Z,8.30
2018-08-14T10:52:33.930Z,8.95
2018-08-14T10:55:04.794Z,8.53
2018-08-14T10:57:35.483Z,8.93
2018-08-14T11:00:11.693Z,9.18
2018-08-14T11:02:42.249Z,8.43
2018-08-14T11:05:12.743Z,7.53
2018-08-14T11:07:44.435Z,8.55
2018-08-14T11:10:17.525Z,7.90
2018-08-14T11:12:47.893Z,8.07
2018-08-14T11:15:18.361Z,8.10
2018-08-14T11:17:48.765Z,7.97
2018-08-14T11:20:21.933Z,9.53
2018-08-14T11:22:52.390Z,8.33
2018-08-14T11:25:22.829Z,8.30
2018-08-14T11:27:53.515Z,7.95
2018-08-14T11:30:25.990Z,8.50
2018-08-14T11:32:56.529Z,8.00
2018-08-14T11:35:32.278Z,9.00
2018-08-14T11:38:02.689Z,9.07
2018-08-14T11:40:33.037Z,7.57
2018-08-14T11:43:03.768Z,7.03
2018-08-14T11:45:34.122Z,7.40
2018-08-14T11:48:04.547Z,6.33
2018-08-14T11:50:35.225Z,7.57
2018-08-14T11:53:05.641Z,6.40
2018-08-14T11:55:36.346Z,7.73
2018-08-14T11:58:07.274Z,7.73
2018-08-14T12:00:38.134Z,7.07
2018-08-14T12:03:08.545Z,8.00
2018-08-14T12:05:38.949Z,7.47
2018-08-14T12:08:09.654Z,8.28
2018-08-14T12:10:40.019Z,7.80
2018-08-14T12:13:17.132Z,8.20
2018-08-14T12:15:47.487Z,7.17
2018-08-14T12:18:17.893Z,7.43
2018-08-14T12:20:48.578Z,6.50
2018-08-14T12:23:19.302Z,5.70
2018-08-14T12:25:49.684Z,5.80
2018-08-14T12:28:20.251Z,5.57
2018-08-14T12:30:50.593Z,6.43
2018-08-14T12:33:20.994Z,5.20
2018-08-14T12:35:51.342Z,4.80
2018-08-14T12:38:21.785Z,6.53
2018-08-14T12:40:52.486Z,6.57
2018-08-14T12:43:23.409Z,6.80
2018-08-14T12:45:53.819Z,7.00
2018-08-14T12:48:24.505Z,7.53
2018-08-14T12:50:54.883Z,6.93
2018-08-14T12:53:25.222Z,6.30
2018-08-14T12:55:55.933Z,5.77
2018-08-14T12:58:26.618Z,6.00
2018-08-14T13:00:57.371Z,6.63
2018-08-14T13:03:28.297Z,6.87
2018-08-14T13:05:59.024Z,6.20
2018-08-14T13:08:29.720Z,6.07
2018-08-14T13:11:00.094Z,6.97
2018-08-14T13:13:30.445Z,6.63
2018-08-14T13:16:00.853Z,6.70
2018-08-14T13:18:31.706Z,6.73
2018-08-14T13:21:02.074Z,6.00
2018-08-14T13:23:32.454Z,5.97
2018-08-14T13:26:02.814Z,6.03
2018-08-14T13:28:33.185Z,6.73
2018-08-14T13:31:03.878Z,5.60
2018-08-14T13:33:34.605Z,6.20
2018-08-14T13:36:05.321Z,5.10
2018-08-14T13:38:36.041Z,5.10
2018-08-14T13:41:06.550Z,5.00
2018-08-14T13:43:37.281Z,6.13
2018-08-14T13:46:08.050Z,5.73
2018-08-14T13:48:38.666Z,6.13
2018-08-14T13:51:09.061Z,6.80
2018-08-14T13:53:39.545Z,7.17
2018-08-14T13:56:10.377Z,7.07
2018-08-14T13:58:41.086Z,6.20
2018-08-14T14:01:11.949Z,6.43
2018-08-14T14:03:42.489Z,6.43
2018-08-14T14:06:12.837Z,6.03
2018-08-14T14:08:43.241Z,5.60
2018-08-14T14:11:13.641Z,5.10
2018-08-14T14:13:44.034Z,5.07
2018-08-14T14:16:14.785Z,5.40
2018-08-14T14:18:45.186Z,5.43
2018-08-14T14:21:15.552Z,6.50
2018-08-14T14:23:45.917Z,5.93
2018-08-14T14:26:16.653Z,5.77
2018-08-14T14:28:47.381Z,7.37
2018-08-14T14:31:17.946Z,7.00
2018-08-14T14:33:48.294Z,8.67
2018-08-14T14:36:18.707Z,8.17
2018-08-14T14:38:49.098Z,7.80
2018-08-14T14:41:19.511Z,6.77
2018-08-14T14:43:49.904Z,6.80
2018-08-14T14:46:20.281Z,7.10
2018-08-14T14:48:50.673Z,7.43
2018-08-14T14:51:21.283Z,7.77
2018-08-14T14:53:51.986Z,6.30
2018-08-14T14:56:22.610Z,7.60
2018-08-14T14:58:53.306Z,7.30
2018-08-14T15:01:24.177Z,7.07
2018-08-14T15:03:54.517Z,7.63
2018-08-14T15:06:24.909Z,6.00
2018-08-14T15:08:55.942Z,6.47
2018-08-14T15:11:26.302Z,6.83
2018-08-14T15:13:57.019Z,7.23
2018-08-14T15:16:27.942Z,6.67
2018-08-14T15:19:09.666Z,7.80
2018-08-14T15:21:40.998Z,7.70
2018-08-14T15:24:11.965Z,6.03
2018-08-14T15:26:43.085Z,6.30
2018-08-14T15:29:17.653Z,4.60
2018-08-14T15:31:57.506Z,5.30
2018-08-14T15:34:29.949Z,5.47
2018-08-14T15:37:02.406Z,5.70
2018-08-14T15:39:32.778Z,6.27
2018-08-14T15:42:03.592Z,6.00
2018-08-14T15:44:33.958Z,7.27
2018-08-14T15:47:04.311Z,6.80
2018-08-14T15:49:34.763Z,8.20
2018-08-14T15:52:05.289Z,7.43
2018-08-14T15:54:35.685Z,7.20
2018-08-14T15:57:06.513Z,7.43
2018-08-14T15:59:36.954Z,6.80
2018-08-14T16:02:07.334Z,6.37
2018-08-14T16:04:38.042Z,6.70
2018-08-14T16:07:08.376Z,6.03
2018-08-14T16:09:38.743Z,7.03
2018-08-14T16:12:09.157Z,6.77
2018-08-14T16:14:39.530Z,5.77
2018-08-14T16:17:10.293Z,5.50
2018-08-14T16:19:40.625Z,5.97
2018-08-14T16:22:11.030Z,5.50
2018-08-14T16:24:41.760Z,5.50
2018-08-14T16:27:12.963Z,5.63
2018-08-14T16:29:43.330Z,6.67
2018-08-14T16:32:13.713Z,5.60
2018-08-14T16:34:44.601Z,5.20
2018-08-14T16:37:15.158Z,6.20
2018-08-14T16:39:45.522Z,7.37
2018-08-14T16:42:15.866Z,5.60
2018-08-14T16:44:46.240Z,5.40
2018-08-14T16:47:16.577Z,6.17
2018-08-14T16:49:46.941Z,5.37
2018-08-14T16:52:17.634Z,5.30
2018-08-14T16:54:48.192Z,6.37
2018-08-14T16:57:18.534Z,6.30
2018-08-14T16:59:48.894Z,7.13
2018-08-14T17:02:19.257Z,7.40
2018-08-14T17:04:49.661Z,6.83
2018-08-14T17:07:20.007Z,5.93
2018-08-14T17:09:50.581Z,5.97
2018-08-14T17:12:20.982Z,5.70
2018-08-14T17:14:52.334Z,5.50
2018-08-14T17:17:22.981Z,4.93
2018-08-14T17:19:52.316Z,5.23
2018-08-14T17:22:22.661Z,5.13
2018-08-14T17:24:53.021Z,4.87
2018-08-14T17:27:23.368Z,4.60
2018-08-14T17:29:53.802Z,4.00
2018-08-14T17:32:24.522Z,4.70
2018-08-14T17:34:55.795Z,4.43
2018-08-14T17:37:26.737Z,5.13
2018-08-14T17:39:57.138Z,5.17
2018-08-14T17:42:27.890Z,4.73
2018-08-14T17:44:58.626Z,3.93
2018-08-14T17:47:28.986Z,3.60
2018-08-14T17:49:59.342Z,4.00
2018-08-14T17:52:29.731Z,4.37
2018-08-14T17:55:00.194Z,4.20
2018-08-14T17:57:31.076Z,4.40
2018-08-14T18:00:01.486Z,4.37
2018-08-14T18:02:33.397Z,5.00
2018-08-14T18:05:04.666Z,4.03
2018-08-14T18:07:35.054Z,4.27
2018-08-14T18:10:07.378Z,4.37
2018-08-14T18:12:39.007Z,4.17
2018-08-14T18:15:12.139Z,4.53
2018-08-14T18:17:43.660Z,4.43
2018-08-14T18:20:16.815Z,3.83
2018-08-14T18:22:48.196Z,4.50
2018-08-14T18:25:20.290Z,4.20
2018-08-14T18:27:52.028Z,4.10
2018-08-14T18:30:23.099Z,4.50
2018-08-14T18:33:00.269Z,4.07
2018-08-14T18:35:30.870Z,3.93
2018-08-14T18:38:01.937Z,4.33
2018-08-14T18:40:32.277Z,4.50
2018-08-14T18:43:02.658Z,5.53
2018-08-14T18:45:33.342Z,4.90
2018-08-14T18:48:03.774Z,4.53
2018-08-14T18:50:34.126Z,4.83
2018-08-14T18:53:04.683Z,4.57
2018-08-14T18:55:35.370Z,4.53
2018-08-14T18:58:06.830Z,5.10
2018-08-14T19:00:37.224Z,5.20
2018-08-14T19:03:07.885Z,4.73
2018-08-14T19:05:38.222Z,5.70
2018-08-14T19:08:08.769Z,5.50
2018-08-14T19:10:39.505Z,6.33
2018-08-14T19:13:09.918Z,5.83
2018-08-14T19:15:40.298Z,5.53
2018-08-14T19:18:11.842Z,4.87
2018-08-14T19:20:42.525Z,5.50
2018-08-14T19:23:12.903Z,5.13
2018-08-14T19:25:43.655Z,6.13
2018-08-14T19:28:13.998Z,4.60
2018-08-14T19:30:44.713Z,4.83
2018-08-14T19:33:15.050Z,6.17
2018-08-14T19:35:45.871Z,5.53
2018-08-14T19:38:16.210Z,4.77
2018-08-14T19:40:46.885Z,4.67
2018-08-14T19:43:17.937Z,5.27
2018-08-14T19:45:48.298Z,5.33
2018-08-14T19:48:19.006Z,5.53
2018-08-14T19:50:49.686Z,5.43
2018-08-14T19:53:20.058Z,4.93
2018-08-14T19:55:50.769Z,5.07
2018-08-14T19:58:21.496Z,5.23
2018-08-14T20:00:52.774Z,4.87
2018-08-14T20:03:23.138Z,4.90
2018-08-14T20:05:53.794Z,5.63
2018-08-14T20:08:24.293Z,5.90
2018-08-14T20:10:54.700Z,4.93
2018-08-14T20:13:25.045Z,6.73
2018-08-14T20:16:00.857Z,6.17
2018-08-14T20:18:31.205Z,6.03
2018-08-14T20:21:01.966Z,6.27
2018-08-14T20:23:32.505Z,6.43
2018-08-14T20:26:04.090Z,6.57
2018-08-14T20:28:34.907Z,7.30
2018-08-14T20:31:05.526Z,6.67
2018-08-14T20:33:35.903Z,5.70
2018-08-14T20:36:06.654Z,6.03
2018-08-14T20:38:37.366Z,6.50
2018-08-14T20:41:07.733Z,6.43
2018-08-14T20:43:38.149Z,6.50
2018-08-14T20:46:08.574Z,6.87
2018-08-14T20:48:38.970Z,5.67
2018-08-14T20:51:09.677Z,6.87
2018-08-14T20:53:40.686Z,5.97
2018-08-14T20:56:11.377Z,6.37
2018-08-14T20:58:42.081Z,5.67
2018-08-14T21:01:12.453Z,6.23
2018-08-14T21:03:42.837Z,5.60
2018-08-14T21:06:13.257Z,5.80
2018-08-14T21:08:43.669Z,6.33
2018-08-14T21:11:16.306Z,6.57
2018-08-14T21:13:46.665Z,6.23
2018-08-14T21:16:24.233Z,7.10
2018-08-14T21:18:56.518Z,9.00
2018-08-14T21:21:27.437Z,8.40
2018-08-14T21:23:57.836Z,6.87
2018-08-14T21:26:28.209Z,7.50
2018-08-14T21:28:58.929Z,7.80
2018-08-14T21:31:29.576Z,8.18
2018-08-14T21:34:00.246Z,7.70
2018-08-14T21:36:30.930Z,6.33
2018-08-14T21:39:01.617Z,7.80
2018-08-14T21:41:32.783Z,8.05
2018-08-14T21:44:03.907Z,7.47
2018-08-14T21:46:34.609Z,6.87
2018-08-14T21:49:04.958Z,7.10
2018-08-14T21:51:35.965Z,6.70
2018-08-14T21:54:06.637Z,6.45
2018-08-14T21:56:37.633Z,5.20
2018-08-14T21:59:08.278Z,7.00
2018-08-14T22:01:38.975Z,7.20
2018-08-14T22:04:09.655Z,7.40
2018-08-14T22:06:40.322Z,7.40
2018-08-14T22:09:10.979Z,7.90
2018-08-14T22:11:41.989Z,9.83
2018-08-14T22:14:13.011Z,9.60
2018-08-14T22:16:43.675Z,9.43
2018-08-14T22:19:14.327Z,9.15
2018-08-14T22:21:45.509Z,9.58
2018-08-14T22:24:16.169Z,9.73
2018-08-14T22:26:46.891Z,10.45
2018-08-14T22:29:17.925Z,9.23
2018-08-14T22:31:48.582Z,9.08
2018-08-14T22:34:19.525Z,9.78
2018-08-14T22:36:50.513Z,9.38
2018-08-14T22:39:21.161Z,9.05
2018-08-14T22:41:51.818Z,9.68
2018-08-14T22:44:23.010Z,8.35
2018-08-14T22:46:53.663Z,9.90
2018-08-14T22:49:24.693Z,9.00
2018-08-14T22:51:55.341Z,10.05
2018-08-14T22:54:26.010Z,8.95
2018-08-14T22:56:56.866Z,7.92
2018-08-14T22:59:27.865Z,6.90
2018-08-14T23:01:58.520Z,8.40
2018-08-14T23:04:29.137Z,6.45
2018-08-14T23:07:00.146Z,8.45
2018-08-14T23:09:30.881Z,6.80
2018-08-14T23:12:01.823Z,7.92
2018-08-14T23:14:32.457Z,6.55
2018-08-14T23:17:03.502Z,7.40
2018-08-14T23:19:34.186Z,7.50
2018-08-14T23:22:04.857Z,6.80
2018-08-14T23:24:35.505Z,6.37
2018-08-14T23:27:06.165Z,6.70
2018-08-14T23:29:36.813Z,6.42
2018-08-14T23:32:07.813Z,7.03
2018-08-14T23:34:38.493Z,6.12
2018-08-14T23:37:09.857Z,6.40
2018-08-14T23:39:40.554Z,7.10
2018-08-14T23:42:11.174Z,5.45
2018-08-14T23:44:42.054Z,7.55
2018-08-14T23:47:12.686Z,6.78
2018-08-14T23:49:50.266Z,6.53
2018-08-14T23:52:20.909Z,7.10
2018-08-14T23:54:51.921Z,6.87
2018-08-14T23:57:22.577Z,6.45
2018-08-14T23:59:53.262Z,6.08
